Terminal Aerodrome Forecast
Issued by NWS

Home | Current Version | Previous Version | Text Only | Print | Product List | Glossary On
Versions: 1 2 3 4 5 6 7 8 9 10 11 12 13 14 15 16 17
000
FTUS43 KGRR 071347 AAA
TAFLAN
TAF AMD
KLAN 071347Z 0714/0812 20008KT 4SM -RA BR SCT006 OVC012
      TEMPO 0714/0715 2SM RA BR BKN006
     FM071530 28008KT 4SM -RA OVC005
     FM071700 32012G22KT P6SM OVC015
     FM072100 33012KT P6SM BKN250
     FM080300 36004KT P6SM SKC=

USA.gov is the U.S. government's official web portal to all federal, state and local government web resources and services.